Time;durP1;ratioP1;P1;durP2;ratioP2;P2;SDS_P1;SDS_P2;PMS_P1;PMS_P2;Temp;Humidity;BMP_temperature;BMP_pressure;BME280_temperature;BME280_humidity;BME280_pressure;Samples;Min_cycle;Max_cycle;Signal;HPM_P1;HPM_P2
2023/04/16 00:02:57;;;;;;;;;32.60;30.00;;;;;11.81;57.54;98372.31;5956744;29;96510;-63
2023/04/16 00:06:00;;;;;;;;;37.00;31.00;;;;;11.75;57.09;98367.06;5965498;29;96246;-63
2023/04/16 00:09:04;;;;;;;;;31.80;29.60;;;;;11.73;57.33;98372.69;5942299;29;98820;-63
2023/04/16 00:12:08;;;;;;;;;34.80;31.60;;;;;11.69;57.25;98374.22;5959347;29;96330;-63
2023/04/16 00:15:12;;;;;;;;;33.00;31.00;;;;;11.56;57.12;98355.63;5956900;29;96743;-63
2023/04/16 00:18:15;;;;;;;;;34.20;31.80;;;;;11.62;57.23;98379.78;5973880;29;96394;-63
2023/04/16 00:21:19;;;;;;;;;36.20;32.00;;;;;11.59;57.36;98368.63;5973926;29;96599;-63
2023/04/16 00:24:22;;;;;;;;;37.00;32.00;;;;;11.53;57.37;98365.00;5974159;29;96513;-63
2023/04/16 00:27:27;;;;;;;;;39.60;34.40;;;;;11.53;57.28;98372.31;5973723;29;96379;-63
2023/04/16 00:30:30;;;;;;;;;33.80;30.80;;;;;11.48;57.24;98375.72;5957370;29;97567;-63
2023/04/16 00:33:33;;;;;;;;;37.20;32.20;;;;;11.47;57.21;98384.88;5964381;29;97267;-63
2023/04/16 00:36:37;;;;;;;;;35.00;31.00;;;;;11.43;57.74;98388.28;5951215;29;96318;-63
2023/04/16 00:39:40;;;;;;;;;37.00;32.00;;;;;11.42;57.78;98395.56;5951029;29;96366;-63
2023/04/16 00:42:45;;;;;;;;;30.60;29.60;;;;;11.42;57.34;98402.84;5956302;29;96639;-63
2023/04/16 00:45:49;;;;;;;;;32.60;30.60;;;;;11.41;57.22;98412.81;5972609;29;96254;-63
2023/04/16 00:48:56;;;;;;;;;32.00;29.00;;;;;11.39;57.02;98416.78;5936347;29;96676;-63
2023/04/16 00:52:01;;;;;;;;;32.00;27.80;;;;;11.39;57.28;98425.72;5954564;29;96329;-63
2023/04/16 00:55:06;;;;;;;;;31.80;29.20;;;;;11.39;57.00;98430.28;5943318;29;96415;-63
2023/04/16 00:58:11;;;;;;;;;28.20;26.60;;;;;11.34;57.09;98417.50;5956466;29;97022;-63
2023/04/16 01:01:16;;;;;;;;;25.50;24.00;;;;;11.37;56.95;98430.53;5971587;29;96207;-63
2023/04/16 01:04:19;;;;;;;;;30.40;29.00;;;;;11.38;56.72;98434.06;5971569;29;96400;-63
2023/04/16 01:07:23;;;;;;;;;27.00;24.00;;;;;11.39;57.21;98436.50;5936604;29;96670;-63
2023/04/16 01:10:26;;;;;;;;;24.33;21.33;;;;;11.41;56.91;98433.59;5935500;29;96394;-63
2023/04/16 01:13:32;;;;;;;;;22.20;22.00;;;;;11.43;56.80;98436.88;5934162;29;97658;-63
2023/04/16 01:16:35;;;;;;;;;21.00;20.20;;;;;11.47;56.96;98433.47;5934638;29;97181;-63
2023/04/16 01:19:39;;;;;;;;;24.50;23.00;;;;;11.51;56.86;98434.63;5941556;29;96786;-63
2023/04/16 01:22:43;;;;;;;;;22.20;20.60;;;;;11.52;56.37;98435.44;5972943;29;96787;-63
2023/04/16 01:25:47;;;;;;;;;22.00;20.25;;;;;11.48;56.68;98421.63;5934537;29;97298;-63
2023/04/16 01:28:50;;;;;;;;;20.00;18.40;;;;;11.48;56.61;98427.00;5950306;29;98375;-63
2023/04/16 01:31:54;;;;;;;;;22.67;20.67;;;;;11.44;56.58;98428.53;5948362;29;96585;-63
2023/04/16 01:35:00;;;;;;;;;18.60;18.00;;;;;11.40;56.41;98431.94;5937965;29;97581;-63
2023/04/16 01:38:06;;;;;;;;;19.40;17.00;;;;;11.44;56.49;98430.41;5959941;29;96291;-63
2023/04/16 01:41:10;;;;;;;;;18.40;18.40;;;;;11.47;56.20;98435.34;5954495;29;96592;-63
2023/04/16 01:44:13;;;;;;;;;21.00;19.60;;;;;11.51;56.45;98428.41;5976678;29;97303;-63
2023/04/16 01:47:17;;;;;;;;;20.80;19.00;;;;;11.53;56.39;98424.38;5976643;29;96301;-63
2023/04/16 01:50:21;;;;;;;;;19.50;18.00;;;;;11.58;56.11;98423.69;5952144;29;96499;-63
2023/04/16 01:53:26;;;;;;;;;18.00;18.00;;;;;11.56;56.24;98417.69;5944280;29;98401;-63
2023/04/16 01:56:29;;;;;;;;;23.00;19.50;;;;;11.59;56.04;98418.03;5976633;29;96354;-63
2023/04/16 01:59:32;;;;;;;;;24.80;21.00;;;;;11.57;55.92;98420.16;5944717;29;96386;-63
2023/04/16 02:02:36;;;;;;;;;16.60;16.00;;;;;11.47;55.99;98411.88;5935103;29;96893;-63
2023/04/16 02:05:40;;;;;;;;;19.00;18.00;;;;;11.53;56.02;98421.69;5959220;29;96927;-63
2023/04/16 02:08:45;;;;;;;;;17.00;17.00;;;;;11.53;56.01;98424.38;5946871;29;96990;-63
2023/04/16 02:11:49;;;;;;;;;21.00;19.00;;;;;11.49;56.12;98425.09;5956262;29;98819;-63
2023/04/16 02:14:53;;;;;;;;;17.40;16.00;;;;;11.46;55.97;98426.41;5955081;29;96360;-63
2023/04/16 02:17:57;;;;;;;;;19.00;17.40;;;;;11.41;55.97;98431.72;5937070;29;96456;-63
2023/04/16 02:21:01;;;;;;;;;23.50;20.50;;;;;11.35;56.04;98421.84;5955632;29;96475;-63
2023/04/16 02:24:06;;;;;;;;;24.60;21.00;;;;;11.33;55.97;98440.19;5944248;29;96679;-63
2023/04/16 02:27:10;;;;;;;;;21.00;18.80;;;;;11.30;56.23;98440.63;5952569;29;96250;-63
2023/04/16 02:30:14;;;;;;;;;25.00;22.00;;;;;11.34;56.13;98444.50;5944440;29;97040;-63
2023/04/16 02:33:17;;;;;;;;;21.60;21.00;;;;;11.31;56.20;98442.28;5937405;29;97564;-63
2023/04/16 02:36:30;;;;;;;;;20.00;18.50;;;;;11.29;56.13;98450.59;5972402;29;97495;-63
2023/04/16 02:39:35;;;;;;;;;22.00;21.80;;;;;11.30;56.07;98444.16;5940476;29;98597;-63
2023/04/16 02:42:39;;;;;;;;;22.75;22.00;;;;;11.28;56.21;98453.56;5946168;29;96808;-63
2023/04/16 02:45:43;;;;;;;;;23.00;21.80;;;;;11.24;56.17;98452.38;5930224;29;98474;-63
2023/04/16 02:48:47;;;;;;;;;23.40;21.40;;;;;11.14;56.11;98460.25;5939934;29;96774;-63
2023/04/16 02:51:50;;;;;;;;;22.40;21.00;;;;;11.09;56.25;98470.94;5936892;29;97952;-63
2023/04/16 02:54:54;;;;;;;;;24.00;24.00;;;;;11.02;56.57;98462.97;5936168;29;97493;-63
2023/04/16 02:57:58;;;;;;;;;26.40;24.40;;;;;10.95;56.59;98467.63;5968918;29;96323;-63
2023/04/16 03:01:01;;;;;;;;;25.00;23.00;;;;;10.91;56.38;98458.38;5926990;29;97510;-63
2023/04/16 03:04:05;;;;;;;;;22.25;20.00;;;;;10.93;56.47;98477.84;5936760;29;96116;-63
2023/04/16 03:07:10;;;;;;;;;25.50;23.00;;;;;10.89;56.68;98478.56;5950114;29;96457;-63
2023/04/16 03:10:14;;;;;;;;;25.20;23.00;;;;;10.85;56.80;98484.41;5978289;29;96329;-63
2023/04/16 03:13:17;;;;;;;;;24.00;21.00;;;;;10.84;56.96;98487.34;5968634;29;96326;-62
2023/04/16 03:16:21;;;;;;;;;22.00;21.00;;;;;10.84;57.08;98490.03;5948418;29;96739;-62
2023/04/16 03:19:24;;;;;;;;;26.80;24.40;;;;;10.79;56.85;98487.22;5980243;29;98794;-62
2023/04/16 03:22:28;;;;;;;;;28.00;23.40;;;;;10.82;56.88;98492.97;5981541;29;96380;-62
2023/04/16 03:25:32;;;;;;;;;25.00;24.00;;;;;10.79;56.82;98493.44;6001820;29;96359;-62
2023/04/16 03:28:35;;;;;;;;;26.80;24.20;;;;;10.82;56.77;98505.63;5965264;29;96709;-63
2023/04/16 03:31:40;;;;;;;;;25.80;24.00;;;;;10.74;56.90;98505.97;5984092;29;96264;-63
2023/04/16 03:34:43;;;;;;;;;29.00;26.50;;;;;10.69;57.10;98511.22;5985194;29;96168;-62
2023/04/16 03:37:46;;;;;;;;;27.80;24.80;;;;;10.63;57.06;98507.59;5984708;29;96548;-61
2023/04/16 03:40:51;;;;;;;;;25.00;21.60;;;;;10.63;57.01;98520.25;5965243;29;96662;-62
2023/04/16 03:43:55;;;;;;;;;22.60;21.00;;;;;10.60;57.08;98516.16;5983029;29;96335;-63
2023/04/16 03:46:58;;;;;;;;;23.20;21.20;;;;;10.61;57.12;98525.03;5975291;29;96661;-62
2023/04/16 03:50:02;;;;;;;;;24.00;22.00;;;;;10.60;57.04;98518.00;5962894;29;96546;-62
2023/04/16 03:53:05;;;;;;;;;18.60;17.00;;;;;10.52;56.77;98526.41;5976173;29;96608;-63
2023/04/16 03:56:10;;;;;;;;;21.60;19.60;;;;;10.53;56.49;98528.06;5974453;29;97088;-63
2023/04/16 03:59:14;;;;;;;;;21.60;20.00;;;;;10.53;56.87;98534.28;5987194;29;96793;-62
2023/04/16 04:02:17;;;;;;;;;24.80;22.80;;;;;10.54;56.78;98521.63;5973946;29;97811;-63
2023/04/16 04:05:21;;;;;;;;;17.40;16.40;;;;;10.62;56.87;98535.59;5978913;29;96353;-63
2023/04/16 04:08:25;;;;;;;;;23.80;21.00;;;;;10.53;57.04;98528.06;5973559;29;97139;-62
2023/04/16 04:11:31;;;;;;;;;25.40;24.40;;;;;10.67;57.20;98548.38;5966306;29;96807;-63
2023/04/16 04:14:38;;;;;;;;;23.80;21.80;;;;;10.72;57.11;98556.59;5983108;29;96485;-63
2023/04/16 04:17:42;;;;;;;;;23.00;21.00;;;;;10.76;57.04;98564.00;5977293;29;96283;-62
2023/04/16 04:20:45;;;;;;;;;26.00;21.40;;;;;10.78;56.88;98561.91;5989525;29;96518;-62
2023/04/16 04:23:51;;;;;;;;;20.00;18.00;;;;;10.70;56.17;98569.50;5970222;29;98039;-63
2023/04/16 04:27:00;;;;;;;;;23.80;20.00;;;;;10.67;55.98;98564.56;5994616;29;96916;-63
2023/04/16 04:30:04;;;;;;;;;19.75;18.00;;;;;10.76;56.38;98573.94;5993481;29;96255;-62
2023/04/16 04:33:08;;;;;;;;;19.00;18.00;;;;;10.95;56.73;98586.31;5979172;29;96317;-62
2023/04/16 04:36:13;;;;;;;;;18.60;17.00;;;;;11.05;56.64;98589.25;5992608;29;96928;-62
2023/04/16 04:39:19;;;;;;;;;13.40;13.00;;;;;11.16;56.39;98584.94;5982944;29;96320;-62
2023/04/16 04:42:26;;;;;;;;;14.00;12.67;;;;;11.34;56.65;98584.03;5996212;29;96849;-62
2023/04/16 04:45:30;;;;;;;;;13.60;11.80;;;;;11.50;56.44;98592.25;5982466;29;96348;-62
2023/04/16 04:48:34;;;;;;;;;14.00;14.00;;;;;11.68;56.38;98585.88;5981106;29;96483;-62
2023/04/16 04:51:38;;;;;;;;;17.00;15.00;;;;;11.82;56.30;98592.75;5974207;29;96949;-62
2023/04/16 04:54:41;;;;;;;;;13.00;13.00;;;;;11.93;55.53;98581.06;5984005;29;96422;-62
2023/04/16 04:57:45;;;;;;;;;14.60;12.80;;;;;12.07;55.24;98597.88;5997905;29;96229;-63
2023/04/16 05:00:49;;;;;;;;;13.60;13.20;;;;;12.18;54.78;98594.31;5964617;29;96290;-63
2023/04/16 05:03:52;;;;;;;;;13.00;11.25;;;;;12.21;54.32;98604.66;5982511;29;96374;-62
2023/04/16 05:06:56;;;;;;;;;14.00;13.40;;;;;12.29;54.45;98604.28;5996458;29;96342;-62
2023/04/16 05:09:59;;;;;;;;;11.00;10.00;;;;;12.31;53.97;98614.84;5991419;29;96284;-62
2023/04/16 05:13:04;;;;;;;;;10.00;10.00;;;;;12.39;53.92;98622.56;5995659;29;98544;-62
2023/04/16 05:16:07;;;;;;;;;12.00;11.40;;;;;12.46;53.29;98623.28;5983616;29;96790;-62
2023/04/16 05:19:11;;;;;;;;;13.60;11.60;;;;;12.54;53.01;98631.00;5970354;29;96825;-62
2023/04/16 05:22:17;;;;;;;;;8.80;7.80;;;;;12.66;52.81;98634.47;5968520;29;96966;-62
2023/04/16 05:25:21;;;;;;;;;11.60;11.00;;;;;12.79;52.71;98639.59;5978757;29;96200;-62
2023/04/16 05:28:25;;;;;;;;;12.00;10.00;;;;;12.91;52.56;98645.75;5961587;29;96271;-62
2023/04/16 05:31:29;;;;;;;;;8.00;8.00;;;;;12.92;51.98;98649.28;5995198;29;96276;-62
2023/04/16 05:34:32;;;;;;;;;11.00;10.00;;;;;12.97;52.35;98639.38;5973558;29;96256;-64
2023/04/16 05:37:36;;;;;;;;;11.00;10.00;;;;;13.15;51.97;98637.53;5972195;29;97138;-64
2023/04/16 05:40:39;;;;;;;;;9.25;9.00;;;;;13.19;51.52;98642.25;5972083;29;96375;-64
2023/04/16 05:43:44;;;;;;;;;14.00;12.00;;;;;13.34;52.07;98639.00;5972671;29;96529;-64
2023/04/16 05:46:47;;;;;;;;;11.25;11.00;;;;;13.39;51.39;98647.16;5973019;29;96466;-65
2023/04/16 05:49:50;;;;;;;;;10.00;9.00;;;;;13.45;51.41;98655.13;5962339;29;97557;-64
2023/04/16 05:52:53;;;;;;;;;9.60;9.60;;;;;13.63;51.18;98656.81;5969243;29;97455;-64
2023/04/16 05:55:57;;;;;;;;;14.00;13.00;;;;;13.77;51.10;98649.16;5985874;29;96429;-64
2023/04/16 05:59:01;;;;;;;;;17.00;16.00;;;;;13.86;50.77;98656.63;5980653;29;96501;-64
2023/04/16 06:02:05;;;;;;;;;13.60;12.00;;;;;13.97;51.28;98663.00;5971917;29;96434;-64
2023/04/16 06:05:09;;;;;;;;;15.00;13.00;;;;;14.08;51.20;98658.53;5994698;29;96471;-64
2023/04/16 06:08:12;;;;;;;;;13.00;12.40;;;;;14.18;51.29;98664.09;5958057;29;97452;-64
2023/04/16 06:11:15;;;;;;;;;13.00;12.80;;;;;14.27;50.52;98657.97;5949322;29;96676;-64
2023/04/16 06:14:20;;;;;;;;;14.00;13.00;;;;;14.41;50.07;98672.06;5966258;29;96788;-64
2023/04/16 06:17:24;;;;;;;;;12.00;11.40;;;;;14.41;49.43;98663.09;5986789;29;96452;-64
2023/04/16 06:20:27;;;;;;;;;12.25;12.00;;;;;14.48;49.68;98671.84;5955654;29;96638;-65
2023/04/16 06:23:30;;;;;;;;;14.40;13.00;;;;;14.63;49.02;98672.03;5968733;29;96974;-65
2023/04/16 06:26:34;;;;;;;;;12.00;11.40;;;;;14.87;49.23;98678.00;5957826;29;96411;-64
2023/04/16 06:29:38;;;;;;;;;11.00;10.00;;;;;15.07;48.92;98681.78;5968268;29;97169;-64
2023/04/16 06:32:45;;;;;;;;;14.25;12.25;;;;;14.97;47.70;98650.97;5966762;29;96605;-65
2023/04/16 06:35:48;;;;;;;;;10.00;10.00;;;;;15.31;47.36;98684.19;5948242;29;98532;-64
2023/04/16 06:38:51;;;;;;;;;12.20;11.80;;;;;15.32;47.09;98683.94;5961526;29;96982;-65
2023/04/16 06:41:55;;;;;;;;;13.00;11.20;;;;;15.29;47.24;98680.91;5950805;29;96668;-64
2023/04/16 06:45:00;;;;;;;;;14.00;12.40;;;;;15.46;47.47;98687.84;5959119;29;98131;-64
2023/04/16 06:48:04;;;;;;;;;14.75;14.75;;;;;15.66;47.45;98683.72;5955908;29;98667;-65
2023/04/16 06:51:07;;;;;;;;;16.33;15.33;;;;;15.82;47.09;98685.47;5980463;29;97095;-64
2023/04/16 06:54:10;;;;;;;;;16.00;15.00;;;;;16.00;47.18;98687.78;5966369;29;96337;-65
2023/04/16 06:57:13;;;;;;;;;14.60;14.60;;;;;16.26;46.78;98705.91;5970692;29;98822;-65
2023/04/16 07:00:19;;;;;;;;;16.00;14.00;;;;;16.44;46.35;98693.75;5955659;29;98465;-66
2023/04/16 07:03:22;;;;;;;;;17.00;15.00;;;;;16.58;45.78;98702.25;5973862;29;96449;-65
2023/04/16 07:06:26;;;;;;;;;19.60;17.60;;;;;16.88;45.76;98694.25;5973617;29;96841;-65
2023/04/16 07:09:30;;;;;;;;;16.50;15.00;;;;;17.05;45.26;98699.50;5969916;29;96358;-65
2023/04/16 07:12:33;;;;;;;;;15.00;13.00;;;;;17.11;45.25;98707.38;5971791;29;96950;-65
2023/04/16 07:15:38;;;;;;;;;14.00;13.00;;;;;17.14;44.85;98706.06;5975313;29;96787;-65
2023/04/16 07:18:41;;;;;;;;;15.40;14.00;;;;;17.44;44.80;98713.47;5967973;29;96464;-63
2023/04/16 07:21:45;;;;;;;;;15.40;14.00;;;;;17.66;44.44;98706.72;5964488;29;96542;-62
2023/04/16 07:24:48;;;;;;;;;16.00;15.00;;;;;17.70;43.83;98720.59;5939973;29;99126;-62
2023/04/16 07:27:51;;;;;;;;;17.00;16.80;;;;;17.96;43.96;98719.53;5966841;29;96575;-62
2023/04/16 07:30:56;;;;;;;;;16.00;16.00;;;;;18.02;43.44;98710.25;5971086;29;98979;-65
2023/04/16 07:34:00;;;;;;;;;18.00;15.00;;;;;18.37;43.81;98720.31;5971494;29;97436;-65
2023/04/16 07:37:06;;;;;;;;;17.00;15.00;;;;;18.70;42.20;98723.50;5962940;29;97790;-63
2023/04/16 07:40:10;;;;;;;;;16.00;15.00;;;;;18.85;41.76;98734.38;5957516;29;98355;-63
2023/04/16 07:43:15;;;;;;;;;16.00;14.20;;;;;18.97;41.58;98734.88;5973803;29;96357;-60
2023/04/16 07:46:19;;;;;;;;;20.00;17.75;;;;;19.21;42.06;98737.75;5971202;29;97486;-62
2023/04/16 07:49:23;;;;;;;;;16.60;15.60;;;;;19.43;41.02;98746.41;5984441;29;96611;-64
2023/04/16 07:52:26;;;;;;;;;17.00;16.50;;;;;19.63;40.64;98750.94;5982564;29;96889;-59
2023/04/16 07:55:29;;;;;;;;;19.40;16.60;;;;;19.68;40.58;98754.47;5959292;29;97137;-60
2023/04/16 07:58:33;;;;;;;;;19.00;17.00;;;;;19.90;40.22;98745.81;5982097;29;97428;-61
2023/04/16 08:01:37;;;;;;;;;18.50;17.00;;;;;20.29;40.88;98748.50;5972900;29;96425;-60
2023/04/16 08:04:41;;;;;;;;;20.00;19.00;;;;;20.72;40.00;98755.75;5979867;29;98426;-61
2023/04/16 08:07:44;;;;;;;;;21.20;19.00;;;;;21.14;39.27;98754.19;5982670;29;96799;-61
2023/04/16 08:10:48;;;;;;;;;18.50;15.75;;;;;21.59;37.66;98756.31;5970697;29;96906;-61
2023/04/16 08:13:51;;;;;;;;;15.00;13.00;;;;;21.76;36.75;98758.53;5983495;29;96350;-61
2023/04/16 08:16:56;;;;;;;;;15.00;15.00;;;;;22.03;36.88;98761.44;5975586;29;96338;-60
2023/04/16 08:20:00;;;;;;;;;19.00;16.40;;;;;22.00;35.95;98756.53;5970313;29;96347;-61
2023/04/16 08:23:03;;;;;;;;;18.75;17.00;;;;;21.68;36.29;98769.38;5944233;29;96936;-61
2023/04/16 08:26:07;;;;;;;;;18.00;16.00;;;;;21.43;36.78;98754.91;5983929;29;96346;-61
2023/04/16 08:29:10;;;;;;;;;18.00;15.00;;;;;21.40;37.01;98762.91;5951185;29;98552;-60
2023/04/16 08:32:16;;;;;;;;;13.00;11.60;;;;;21.35;36.77;98769.28;5983820;29;96663;-61
2023/04/16 08:35:19;;;;;;;;;15.75;13.00;;;;;21.77;35.95;98760.16;5971652;29;98858;-60
2023/04/16 08:38:22;;;;;;;;;16.00;14.50;;;;;21.92;35.38;98764.59;5972994;29;99269;-62
2023/04/16 08:41:28;;;;;;;;;13.00;12.00;;;;;22.09;35.49;98766.84;5976659;29;96240;-61
2023/04/16 08:44:33;;;;;;;;;13.00;12.00;;;;;22.56;35.04;98761.06;5970765;29;97279;-61
2023/04/16 08:47:38;;;;;;;;;15.40;13.40;;;;;23.13;33.90;98772.63;5979301;29;96909;-62
2023/04/16 08:50:44;;;;;;;;;15.00;15.00;;;;;23.49;33.51;98779.03;5956212;29;96416;-62
2023/04/16 08:53:52;;;;;;;;;12.50;12.00;;;;;23.77;32.62;98776.22;5982658;29;96566;-62
2023/04/16 08:56:57;;;;;;;;;12.50;12.00;;;;;24.14;32.61;98776.69;5976858;29;98443;-62
2023/04/16 09:00:01;;;;;;;;;12.60;11.60;;;;;24.41;31.15;98769.44;5969250;29;98352;-61
2023/04/16 09:03:06;;;;;;;;;10.00;9.00;;;;;24.55;30.93;98778.44;5980831;29;96684;-62
2023/04/16 09:06:10;;;;;;;;;10.50;10.00;;;;;24.62;30.05;98775.25;5981761;29;96384;-62
2023/04/16 09:09:16;;;;;;;;;11.00;10.75;;;;;24.63;30.48;98771.34;5980504;29;96739;-61
2023/04/16 09:12:19;;;;;;;;;12.40;11.40;;;;;24.38;30.45;98767.31;5950233;29;98649;-61
2023/04/16 09:15:24;;;;;;;;;11.60;11.00;;;;;24.80;31.30;98766.72;5947441;29;97298;-60
2023/04/16 09:18:30;;;;;;;;;8.60;8.60;;;;;24.77;30.90;98770.13;5980632;29;96754;-61
2023/04/16 09:21:33;;;;;;;;;10.00;10.00;;;;;25.27;31.09;98769.84;5954188;29;97064;-61
2023/04/16 09:24:38;;;;;;;;;9.40;8.40;;;;;25.79;30.14;98771.59;5973460;29;96239;-62
2023/04/16 09:27:41;;;;;;;;;10.00;10.00;;;;;26.25;29.03;98772.88;5988824;29;96341;-62
2023/04/16 09:30:44;;;;;;;;;10.00;10.00;;;;;26.73;28.73;98770.66;5971291;29;96275;-62
2023/04/16 09:34:03;;;;;;;;;10.00;9.00;;;;;27.20;26.85;98769.84;5987555;29;97348;-62
2023/04/16 09:37:16;;;;;;;;;9.00;8.00;;;;;27.46;27.11;98779.66;5981985;29;96310;-62
2023/04/16 09:40:24;;;;;;;;;9.00;9.00;;;;;27.81;27.02;98769.13;5987544;29;96494;-61
2023/04/16 09:43:27;;;;;;;;;9.25;8.25;;;;;28.07;25.95;98768.13;5969014;29;96769;-62
2023/04/16 09:46:31;;;;;;;;;9.00;8.40;;;;;28.36;26.25;98770.81;5967449;29;99289;-62
2023/04/16 09:49:41;;;;;;;;;6.60;4.60;;;;;28.14;24.80;98774.78;5958011;29;99070;-62
2023/04/16 09:52:49;;;;;;;;;9.00;8.00;;;;;28.06;24.30;98772.84;5953103;29;96865;-61
2023/04/16 09:55:53;;;;;;;;;5.00;5.00;;;;;28.14;24.12;98779.50;5988822;29;98987;-62
2023/04/16 09:58:58;;;;;;;;;4.00;3.00;;;;;28.25;22.62;98784.28;5993548;29;96508;-62
2023/04/16 10:02:01;;;;;;;;;4.00;4.00;;;;;28.41;22.25;98760.31;5991306;29;97044;-62
2023/04/16 10:05:21;;;;;;;;;5.00;5.00;;;;;28.78;21.55;98769.56;6001616;29;96334;-62
2023/04/16 10:08:27;;;;;;;;;3.60;3.60;;;;;28.74;22.05;98762.25;5970238;29;98482;-61
2023/04/16 10:11:31;;;;;;;;;5.60;5.60;;;;;28.67;21.20;98765.59;5970739;29;96446;-62
2023/04/16 10:14:35;;;;;;;;;4.00;4.00;;;;;28.63;21.30;98758.31;6000429;29;96796;-62
2023/04/16 10:17:39;;;;;;;;;3.00;2.00;;;;;28.41;20.30;98765.03;5990370;29;96292;-62
2023/04/16 10:20:44;;;;;;;;;4.00;3.50;;;;;27.95;21.38;98749.50;5986457;29;96683;-62
2023/04/16 10:23:49;;;;;;;;;6.00;5.00;;;;;27.92;22.43;98764.81;5987495;29;96096;-62
2023/04/16 10:26:53;;;;;;;;;5.00;5.00;;;;;28.17;22.13;98767.75;6003149;29;96355;-62
2023/04/16 10:29:56;;;;;;;;;4.00;4.00;;;;;28.41;23.07;98765.03;6001203;29;96325;-62
2023/04/16 10:33:01;;;;;;;;;7.25;7.00;;;;;28.09;23.03;98755.56;5998389;29;96231;-62
2023/04/16 10:36:11;;;;;;;;;7.00;7.00;;;;;27.57;22.99;98763.47;5984167;29;96702;-62
2023/04/16 10:39:19;;;;;;;;;6.00;6.00;;;;;27.12;23.59;98761.25;6002560;29;96286;-60
2023/04/16 10:42:22;;;;;;;;;5.40;5.40;;;;;26.82;24.55;98772.59;5997367;29;96833;-62
2023/04/16 10:45:38;;;;;;;;;6.00;5.00;;;;;26.54;24.21;98773.00;5985657;29;96916;-62
2023/04/16 10:48:42;;;;;;;;;7.60;6.60;;;;;26.27;24.74;98765.91;5996227;29;96260;-62
2023/04/16 10:51:55;;;;;;;;;6.00;5.00;;;;;25.98;24.64;98767.69;5994720;29;96282;-62
2023/04/16 10:55:00;;;;;;;;;6.00;5.00;;;;;25.81;25.32;98768.50;5995201;29;96343;-62
2023/04/16 10:58:29;;;;;;;;;5.00;5.00;;;;;26.30;25.35;98779.06;5974211;29;97767;-63
2023/04/16 11:01:35;;;;;;;;;7.00;7.00;;;;;26.25;24.67;98778.41;5977546;28;99088;-62
2023/04/16 11:04:39;;;;;;;;;8.00;7.00;;;;;26.43;25.44;98771.75;5996484;29;96454;-62
2023/04/16 11:07:48;;;;;;;;;7.00;7.00;;;;;26.59;24.25;98775.59;5967042;29;96890;-61
2023/04/16 11:10:52;;;;;;;;;7.00;6.00;;;;;26.43;24.41;98776.44;5994111;29;96500;-62
2023/04/16 11:13:56;;;;;;;;;6.00;6.00;;;;;26.94;24.48;98779.06;5979061;29;96623;-62
2023/04/16 11:17:03;;;;;;;;;6.40;6.40;;;;;27.38;22.79;98777.72;5987614;29;97508;-62
2023/04/16 11:20:08;;;;;;;;;5.00;4.20;;;;;27.21;22.35;98768.72;5984286;29;96858;-61
2023/04/16 11:23:23;;;;;;;;;6.50;5.50;;;;;27.32;22.04;98779.06;5999508;29;96263;-61
2023/04/16 11:26:29;;;;;;;;;5.00;5.00;;;;;27.08;22.91;98779.66;6002549;29;96289;-62
2023/04/16 11:29:33;;;;;;;;;5.00;5.00;;;;;27.38;22.54;98782.44;5987293;29;98545;-62
2023/04/16 11:32:38;;;;;;;;;5.00;5.00;;;;;27.55;22.00;98771.31;5968791;29;97736;-62
2023/04/16 11:35:42;;;;;;;;;6.40;6.00;;;;;27.75;22.43;98780.78;5986436;29;96789;-62
2023/04/16 11:38:47;;;;;;;;;4.00;4.00;;;;;27.82;22.50;98781.84;5987308;29;96499;-61
2023/04/16 11:41:52;;;;;;;;;4.00;4.00;;;;;27.00;22.41;98783.28;6001533;29;96365;-62
2023/04/16 11:44:56;;;;;;;;;5.00;5.00;;;;;26.45;22.00;98774.16;5986964;29;96894;-61
2023/04/16 11:47:59;;;;;;;;;5.00;4.00;;;;;25.97;22.97;98775.16;6003097;29;96312;-61
2023/04/16 11:51:03;;;;;;;;;5.00;5.00;;;;;25.64;23.45;98780.34;5983963;29;96715;-61
2023/04/16 11:54:08;;;;;;;;;5.00;5.00;;;;;25.36;23.55;98779.75;5986624;29;98632;-61
2023/04/16 11:57:15;;;;;;;;;4.00;4.00;;;;;25.86;24.33;98773.84;6003913;29;96370;-62
2023/04/16 12:00:18;;;;;;;;;5.00;5.00;;;;;26.29;23.97;98769.13;6002888;29;96258;-62
2023/04/16 12:03:38;;;;;;;;;4.00;4.00;;;;;26.96;22.51;98773.22;6002907;29;96808;-62
2023/04/16 12:07:04;;;;;;;;;3.60;3.00;;;;;27.13;21.79;98762.06;6004487;29;96368;-62
2023/04/16 12:10:09;;;;;;;;;5.00;4.00;;;;;27.55;22.70;98765.75;6004186;28;96313;-62
2023/04/16 12:13:14;;;;;;;;;5.00;5.00;;;;;27.60;21.38;98754.50;6002587;29;96446;-62
2023/04/16 12:16:20;;;;;;;;;4.00;4.00;;;;;27.36;22.37;98770.91;5985383;29;96797;-62
2023/04/16 12:19:23;;;;;;;;;5.00;5.00;;;;;27.43;21.81;98762.88;6003534;29;96794;-62
2023/04/16 12:22:30;;;;;;;;;4.20;4.20;;;;;27.39;22.60;98762.75;6002414;29;96327;-62
2023/04/16 12:25:35;;;;;;;;;4.00;3.80;;;;;27.49;22.71;98758.78;5987511;29;96821;-62
2023/04/16 12:28:39;;;;;;;;;4.20;4.00;;;;;27.28;21.65;98753.19;5979675;29;96301;-61
2023/04/16 12:31:42;;;;;;;;;6.60;5.60;;;;;27.48;21.64;98754.38;6002589;29;96298;-62
2023/04/16 12:34:51;;;;;;;;;5.00;5.00;;;;;27.45;21.52;98755.88;6003405;29;96241;-62
2023/04/16 12:37:54;;;;;;;;;2.20;2.20;;;;;27.31;21.23;98746.19;6001931;29;97170;-62
2023/04/16 12:41:01;;;;;;;;;5.00;4.60;;;;;27.02;21.90;98750.56;5986441;29;96260;-61
2023/04/16 12:44:07;;;;;;;;;3.60;3.00;;;;;26.52;21.68;98735.78;5995961;28;96296;-61
2023/04/16 12:47:11;;;;;;;;;4.40;4.00;;;;;26.32;22.49;98745.56;5996927;28;97724;-61
2023/04/16 12:50:14;;;;;;;;;4.00;4.00;;;;;25.92;22.02;98735.84;5999283;29;96380;-61
2023/04/16 12:53:18;;;;;;;;;4.00;4.00;;;;;26.49;23.68;98744.69;5997437;28;96401;-62
2023/04/16 12:56:22;;;;;;;;;5.00;4.00;;;;;26.57;23.17;98739.16;6001928;29;96334;-61
2023/04/16 12:59:25;;;;;;;;;6.00;5.00;;;;;26.57;23.12;98749.41;5987069;28;97489;-61
2023/04/16 13:02:29;;;;;;;;;6.00;6.00;;;;;26.53;22.78;98740.97;6002893;28;96365;-61
2023/04/16 13:05:32;;;;;;;;;4.00;3.80;;;;;26.48;23.10;98743.91;6001931;29;96417;-61
2023/04/16 13:08:36;;;;;;;;;5.00;5.00;;;;;26.68;23.61;98743.19;5986827;29;98599;-61
2023/04/16 13:11:41;;;;;;;;;5.00;5.00;;;;;26.86;23.08;98743.13;5999561;28;96700;-61
2023/04/16 13:14:44;;;;;;;;;9.60;8.40;;;;;27.05;23.95;98747.13;5994877;28;96387;-61
2023/04/16 13:17:47;;;;;;;;;7.25;6.50;;;;;27.28;23.49;98744.88;5981113;28;96326;-62
2023/04/16 13:20:51;;;;;;;;;5.60;5.60;;;;;27.53;23.27;98745.91;5995367;29;96396;-62
2023/04/16 13:23:54;;;;;;;;;6.80;6.80;;;;;27.64;22.11;98749.09;5992456;29;96262;-61
2023/04/16 13:26:59;;;;;;;;;3.50;3.50;;;;;27.53;21.72;98745.91;5978368;29;96308;-62
2023/04/16 13:30:02;;;;;;;;;4.75;4.75;;;;;27.34;22.95;98742.75;5982611;29;97301;-61
2023/04/16 13:33:06;;;;;;;;;5.40;5.40;;;;;27.09;22.67;98741.75;5997774;28;96414;-61
2023/04/16 13:36:09;;;;;;;;;5.40;5.00;;;;;26.82;22.18;98744.94;5983614;28;96306;-61
2023/04/16 13:39:13;;;;;;;;;3.00;3.00;;;;;26.54;22.59;98736.22;6005167;28;96827;-61
2023/04/16 13:42:17;;;;;;;;;4.80;4.80;;;;;26.28;22.80;98739.09;5989909;29;98473;-61
2023/04/16 13:45:21;;;;;;;;;6.00;5.00;;;;;26.03;23.82;98739.91;6006526;28;96383;-62
2023/04/16 13:48:24;;;;;;;;;5.00;5.00;;;;;25.76;23.57;98743.78;5998026;28;98510;-61
2023/04/16 13:51:30;;;;;;;;;4.80;4.00;;;;;25.62;24.32;98745.91;5976610;29;98470;-61
2023/04/16 13:54:34;;;;;;;;;6.00;5.00;;;;;25.44;23.84;98747.81;5968620;29;97250;-61
2023/04/16 13:57:39;;;;;;;;;3.00;3.00;;;;;25.33;24.33;98740.97;5990864;29;96667;-61
2023/04/16 14:00:43;;;;;;;;;5.00;5.00;;;;;25.24;24.13;98737.38;6000004;29;96429;-62
2023/04/16 14:03:46;;;;;;;;;6.40;5.80;;;;;25.27;24.45;98742.25;6003297;29;97015;-62
2023/04/16 14:06:50;;;;;;;;;3.40;3.40;;;;;25.27;24.41;98736.72;5989477;29;96583;-61
2023/04/16 14:09:53;;;;;;;;;5.00;5.00;;;;;25.33;24.96;98738.19;6006111;28;97009;-61
2023/04/16 14:12:58;;;;;;;;;5.00;4.50;;;;;25.24;24.09;98734.63;5989977;29;98700;-61
2023/04/16 14:16:02;;;;;;;;;7.00;7.00;;;;;25.11;25.04;98739.13;6005518;28;96350;-61